LIBD Airport Information

Runway Information
Runway 07 Length 8005 ft width 148 ft
Elevation 177 ft Threshold 0 ft Heading 69
Runway 25 Length 8005 ft Width 148 ft
Elevation 108 ft Threshold 0 ft Heading 249
Runway 12 Length 5512 ft width 164 ft
Elevation 108 ft Threshold 0 ft Heading 123
Runway 30 Length 5512 ft Width 164 ft
Elevation 108 ft Threshold 0 ft Heading 303
Airport Frequencies
Type APP Name APP Frequency 119.5 MHZ
Type TWR Name TWR Frequency 118.3 MHZ
Airport Navaids
Type VOR-DME Name Bari Frequency 116400 KHZ
Airport Weather Information & NOTAM
ADDS - METARS form results

(1816 UTC 29 May 2020)
Data provider http://aviationweather.gov/metar/data/
 
METAR text: LIBD 291750Z VRB02KT CAVOK 18/11 Q1017
Conditions at: LIBD (BARI/PALESE MACC, IT) observed 1750 UTC 29 May 2020
Temperature: 18.0°C (64°F)
Dewpoint: 11.0°C (52°F) [RH = 64%]
Pressure (altimeter): 30.03 inches Hg (1017.0 mb)
Winds: variable direction winds at 2 MPH (2 knots; 1.0 m/s)
Visibility: 6 or more miles (10+ km)
Ceiling: ceiling and visibility are OK
Clouds: unknown
Weather: no significant weather observed at this time

METAR text: LIBD 291720Z 02003KT 340V070 CAVOK 19/11 Q1017
Conditions at: LIBD (BARI/PALESE MACC, IT) observed 1720 UTC 29 May 2020
Temperature: 19.0°C (66°F)
Dewpoint: 11.0°C (52°F) [RH = 60%]
Pressure (altimeter): 30.03 inches Hg (1017.0 mb)
Winds: from the NNE (20 degrees) at 3 MPH (3 knots; 1.5 m/s)
Visibility: 6 or more miles (10+ km)
Ceiling: ceiling and visibility are OK
Clouds: unknown
Weather: no significant weather observed at this time

Forecast for: LIBD (BARI/PALESE MACC, IT)
Text: TAF LIBD 291700Z 2918/3018 VRB05KT 9999 SCT030
Forecast period: 1800 UTC 29 May 2020 to 1000 UTC 30 May 2020
Forecast type: FROM: standard forecast or significant change
Winds: variable direction winds at 6 MPH (5 knots; 2.6 m/s)
Visibility: 6 or more miles 10+ km)
Ceiling: at least 12,000 feet AGL
Clouds: scattered clouds at 3000 feet AGL
Weather: no significant weather forecast for this period
Text: TEMPO 3006/3009 RA
Forecast period: 0600 to 0900 UTC 30 May 2020
Forecast type: TEMPORARY: The following changes expected for less than half the time period
Visibility: missing
Ceiling: unknown
Clouds: missing
Weather: RA  (moderate rain)
Text: TEMPO 3009/3018 TSRA
Forecast period: 0900 to 1800 UTC 30 May 2020
Forecast type: TEMPORARY: The following changes expected for less than half the time period
Visibility: missing
Ceiling: unknown
Clouds: missing
Weather: TSRA  (rain associated with thunderstorm(s))
Text: BECMG 3010/3012 16010KT
Forecast period: 1000 to 1800 UTC 30 May 2020
Forecast type: BECOMING: Conditions expected to become as follows by 1200 UTC 30 May 2020
Winds: from the SSE (160 degrees) at 12 MPH (10 knots; 5.1 m/s)
Visibility: 6 or more miles 10+ km)
Ceiling: at least 12,000 feet AGL
Clouds: scattered clouds at 3000 feet AGL
Weather: no significant weather forecast for this period